Linda Moran — WDE4187 — position and weather

sailwx.info

Track history (hours):
 
Tides and Currents Weather Stations Pressure Air Temp Water Temp Dewpoint Dewpoint Depression Visibility Wind Speed Wind Dir Waves Ship Positions

Linda Moran

Owner: MORAN TOWING CORP., NEW CANAAN, CT. More information available from US FCC via Universal Licensing System and Coast Guard Vessel Documentation Center.

Last reported at 2017-Jun-26 13:28 UTC. Time now 2017-Jun-26 14:09 UTC.
Position N 39°35' W 075°36'.

Length 156 m; draft 7.6 m.

Type: . MMSI: 367349860.

Date/timePositionNaut miles runAvg speedWind from/ knotsBaromVisibWave heightAir tempDewpointWater temp
2017-Jun-26 13:28N 39°35' W 075°36'0 0.0
2017-Jun-26 12:55N 39°35' W 075°36'0 0.0
2017-Jun-26 12:28N 39°35' W 075°36'0 0.0
2017-Jun-26 11:58N 39°35' W 075°36'0 0.0
2017-Jun-26 11:28N 39°35' W 075°36'0 0.0
2017-Jun-26 10:58N 39°35' W 075°36'0 0.0
2017-Jun-26 10:28N 39°35' W 075°36'0 0.0
2017-Jun-26 09:58N 39°35' W 075°36'0 0.0
2017-Jun-26 09:28N 39°35' W 075°36'0 0.0
2017-Jun-26 08:58N 39°35' W 075°36'0 0.0
2017-Jun-26 08:28N 39°35' W 075°36'0 0.0
2017-Jun-26 07:58N 39°35' W 075°36'0 0.0
2017-Jun-26 07:28N 39°35' W 075°36'0 0.0
2017-Jun-26 06:58N 39°35' W 075°36'0 0.0
2017-Jun-26 06:28N 39°35' W 075°36'0 0.0
2017-Jun-26 05:58N 39°35' W 075°36'0 0.0
2017-Jun-26 05:28N 39°35' W 075°36'0 0.0
2017-Jun-26 04:58N 39°35' W 075°36'0 0.0
2017-Jun-26 04:28N 39°35' W 075°36'0 0.0
2017-Jun-26 03:58N 39°35' W 075°36'0 0.0
2017-Jun-26 03:28N 39°35' W 075°36'0 0.0
2017-Jun-26 02:58N 39°35' W 075°36'0 0.0
2017-Jun-26 02:28N 39°35' W 075°36'0 0.0
2017-Jun-26 01:58N 39°35' W 075°36'0 0.0
2017-Jun-26 01:28N 39°35' W 075°36'0 0.0
2017-Jun-26 00:58N 39°35' W 075°36'1 1.1
2017-Jun-26 00:30N 39°35' W 075°35'3 5.0
2017-Jun-25 23:58N 39°33' W 075°33'0 0.0
2017-Jun-25 23:28N 39°33' W 075°33'0 0.0
2017-Jun-25 22:58N 39°33' W 075°33'0 0.0
2017-Jun-25 22:28N 39°33' W 075°33'0 0.0
2017-Jun-25 21:58N 39°33' W 075°33'0 0.0
2017-Jun-25 21:28N 39°33' W 075°33'0 0.0
2017-Jun-25 20:58N 39°33' W 075°33'0 0.0
2017-Jun-25 20:28N 39°33' W 075°33'0 0.0
2017-Jun-25 19:58N 39°33' W 075°33'0 0.0
2017-Jun-25 19:28N 39°33' W 075°33'0 0.1
2017-Jun-25 18:58N 39°33' W 075°33'0 0.2
2017-Jun-25 18:28N 39°33' W 075°33'0 0.1
2017-Jun-25 17:58N 39°33' W 075°33'0 0.0
2017-Jun-25 17:28N 39°33' W 075°33'0 0.0
2017-Jun-25 16:58N 39°33' W 075°33'0 0.0
2017-Jun-25 16:28N 39°33' W 075°33'0 0.0
2017-Jun-25 15:58N 39°33' W 075°33'0 0.0
2017-Jun-25 15:28N 39°33' W 075°33'0 0.0
2017-Jun-25 14:58N 39°33' W 075°33'0 0.0
2017-Jun-25 13:58N 39°33' W 075°33'0 0.0
2017-Jun-25 13:28N 39°33' W 075°33'2 5.1
2017-Jun-25 13:00N 39°35' W 075°34'5 9.0
2017-Jun-25 12:30N 39°40' W 075°32'3 6.3
2017-Jun-25 12:00N 39°42' W 075°30'0 0.0
2017-Jun-25 11:30N 39°42' W 075°30'0 0.0
2017-Jun-25 11:00N 39°42' W 075°30'0 0.0
2017-Jun-25 10:30N 39°42' W 075°30'0 0.0
2017-Jun-25 10:00N 39°42' W 075°30'0 0.0
2017-Jun-25 09:30N 39°42' W 075°30'0 0.0
2017-Jun-25 09:00N 39°42' W 075°30'0 0.0
2017-Jun-25 08:30N 39°42' W 075°30'0 0.1
2017-Jun-25 08:00N 39°42' W 075°30'0 0.0
2017-Jun-25 07:30N 39°42' W 075°30'0 0.2
2017-Jun-25 07:00N 39°42' W 075°30'0 0.2
2017-Jun-25 06:30N 39°43' W 075°30'0 0.0
2017-Jun-25 06:00N 39°43' W 075°30'0 0.0
2017-Jun-25 05:30N 39°43' W 075°30'0 0.0
2017-Jun-25 05:00N 39°43' W 075°30'0 0.0
2017-Jun-25 04:27N 39°43' W 075°30'0 0.0
2017-Jun-25 04:00N 39°43' W 075°30'0 0.0
2017-Jun-25 03:30N 39°43' W 075°30'0 0.0
2017-Jun-25 02:57N 39°43' W 075°30'0 0.0
2017-Jun-25 02:30N 39°43' W 075°30'0 0.0
2017-Jun-25 02:00N 39°43' W 075°30'0 0.0
2017-Jun-25 01:30N 39°43' W 075°30'0 0.0
2017-Jun-25 01:00N 39°43' W 075°30'0 0.3
2017-Jun-25 00:30N 39°42' W 075°30'0 0.1
2017-Jun-25 00:00N 39°42' W 075°30'0 0.0
2017-Jun-24 23:30N 39°42' W 075°30'0 0.0
2017-Jun-24 23:00N 39°42' W 075°30'0 0.0
2017-Jun-24 22:27N 39°42' W 075°30'0 0.0
2017-Jun-24 22:00N 39°42' W 075°30'0 0.0
2017-Jun-24 21:27N 39°42' W 075°30'0 0.0
2017-Jun-24 21:00N 39°42' W 075°30'0 0.0
2017-Jun-24 20:30N 39°42' W 075°30'0 0.0
2017-Jun-24 20:00N 39°42' W 075°30'0 0.0
2017-Jun-24 19:30N 39°42' W 075°30'0 0.1
2017-Jun-24 19:00N 39°42' W 075°30'0 0.1
2017-Jun-24 18:30N 39°42' W 075°30'0 0.1
2017-Jun-24 18:00N 39°43' W 075°30'0 0.0
2017-Jun-24 17:30N 39°43' W 075°30'0 0.1
2017-Jun-24 17:00N 39°43' W 075°30'0 0.0
2017-Jun-24 16:30N 39°43' W 075°30'0 0.1
2017-Jun-24 16:00N 39°43' W 075°30'0 0.0
2017-Jun-24 15:30N 39°43' W 075°30'0 0.0
2017-Jun-24 15:00N 39°43' W 075°30'0 0.0
2017-Jun-24 14:00N 39°43' W 075°30'0 0.0
2017-Jun-24 13:30N 39°43' W 075°30'0 0.2
2017-Jun-24 13:00N 39°42' W 075°30'0 0.2
2017-Jun-24 12:30N 39°42' W 075°30'0 0.0
2017-Jun-24 12:00N 39°42' W 075°30'0 0.0
2017-Jun-24 11:30N 39°42' W 075°30'0 0.0
2017-Jun-24 11:00N 39°42' W 075°30'0 0.0
2017-Jun-24 10:30N 39°42' W 075°30'0 0.1
2017-Jun-24 10:00N 39°42' W 075°30'0 0.0
2017-Jun-24 09:30N 39°42' W 075°30'0 0.0
2017-Jun-24 09:00N 39°42' W 075°30'0 0.0
2017-Jun-24 08:30N 39°42' W 075°30'0 0.0
2017-Jun-24 08:00N 39°42' W 075°30'0 0.0
2017-Jun-24 07:27N 39°42' W 075°30'0 0.2
2017-Jun-24 07:00N 39°43' W 075°30'0 0.2
2017-Jun-24 06:30N 39°43' W 075°30'0 0.0
2017-Jun-24 06:00N 39°43' W 075°30'0 0.0
2017-Jun-24 05:30N 39°43' W 075°30'0 0.0
2017-Jun-24 05:00N 39°43' W 075°30'0 0.0
2017-Jun-24 04:30N 39°43' W 075°30'0 0.0
2017-Jun-24 04:00N 39°43' W 075°30'0 0.0
2017-Jun-24 03:27N 39°43' W 075°30'0 0.0
2017-Jun-24 03:00N 39°43' W 075°30'0 0.0
2017-Jun-24 02:30N 39°43' W 075°30'0 0.0
2017-Jun-24 02:00N 39°43' W 075°30'0 0.0
2017-Jun-24 01:30N 39°43' W 075°30'0 0.0
2017-Jun-24 01:00N 39°43' W 075°30'0 0.0
2017-Jun-24 00:30N 39°43' W 075°30'0 0.0
2017-Jun-24 00:00N 39°43' W 075°30'0 0.0
2017-Jun-23 23:30N 39°43' W 075°30'0 0.3
2017-Jun-23 23:00N 39°42' W 075°30'0 0.0
2017-Jun-23 22:30N 39°42' W 075°30'0 0.0
2017-Jun-23 22:00N 39°42' W 075°30'0 0.0
2017-Jun-23 21:30N 39°42' W 075°30'0 0.0
2017-Jun-23 21:00N 39°42' W 075°30'0 0.0
2017-Jun-23 20:27N 39°42' W 075°30'0 0.0
2017-Jun-23 20:00N 39°42' W 075°30'0 0.0
2017-Jun-23 19:30N 39°42' W 075°30'0 0.0
2017-Jun-23 19:00N 39°42' W 075°30'0 0.3
2017-Jun-23 18:30N 39°43' W 075°30'0 0.1
2017-Jun-23 18:00N 39°43' W 075°30'0 0.0
2017-Jun-23 17:30N 39°43' W 075°30'0 0.0
2017-Jun-23 17:00N 39°43' W 075°30'0 0.0
2017-Jun-23 16:30N 39°43' W 075°30'0 0.0
2017-Jun-23 16:00N 39°43' W 075°30'0 0.0
2017-Jun-23 15:30N 39°43' W 075°30'0 0.0
2017-Jun-23 15:00N 39°43' W 075°30'0 0.0
2017-Jun-23 14:00N 39°43' W 075°30'0 0.0
2017-Jun-23 13:30N 39°43' W 075°30'0 0.0
2017-Jun-23 13:00N 39°43' W 075°30'0 0.0
2017-Jun-23 12:30N 39°43' W 075°30'0 0.0
2017-Jun-23 12:00N 39°43' W 075°30'0 0.3
2017-Jun-23 11:30N 39°42' W 075°30'0 0.1
2017-Jun-23 11:00N 39°42' W 075°30'0 0.0
2017-Jun-23 10:30N 39°42' W 075°30'0 0.0
2017-Jun-23 10:00N 39°42' W 075°30'0 0.0
2017-Jun-23 09:30N 39°42' W 075°30'0 0.0
2017-Jun-23 09:00N 39°42' W 075°30'0 0.0
2017-Jun-23 08:30N 39°42' W 075°30'0 0.0
2017-Jun-23 08:00N 39°42' W 075°30'0 0.0
2017-Jun-23 07:30N 39°42' W 075°30'0 0.0
2017-Jun-23 07:00N 39°42' W 075°30'0 0.0
2017-Jun-23 06:30N 39°42' W 075°30'0 0.0
2017-Jun-23 06:00N 39°42' W 075°30'0 0.3
2017-Jun-23 05:30N 39°43' W 075°30'0 0.1
2017-Jun-23 04:57N 39°43' W 075°30'0 0.0
2017-Jun-23 04:30N 39°43' W 075°30'0 0.0
2017-Jun-23 04:00N 39°43' W 075°30'0 0.0
2017-Jun-23 03:30N 39°43' W 075°30'0 0.0
2017-Jun-23 03:00N 39°43' W 075°30'0 0.0
2017-Jun-23 02:27N 39°43' W 075°30'0 0.0
2017-Jun-23 02:00N 39°43' W 075°30'0 0.0
2017-Jun-23 01:30N 39°43' W 075°30'0 0.0
2017-Jun-23 01:00N 39°43' W 075°30'0 0.0
2017-Jun-23 00:30N 39°43' W 075°30'0 0.0
2017-Jun-23 00:00N 39°43' W 075°30'0 0.0
2017-Jun-22 23:30N 39°43' W 075°30'0 0.0
2017-Jun-22 23:00N 39°43' W 075°30'0 0.3
2017-Jun-22 22:30N 39°42' W 075°30'0 0.1
2017-Jun-22 22:00N 39°42' W 075°30'0 0.0
2017-Jun-22 21:30N 39°42' W 075°30'0 0.0
2017-Jun-22 21:00N 39°42' W 075°30'0 0.0
2017-Jun-22 20:30N 39°42' W 075°30'0 0.0
2017-Jun-22 20:00N 39°42' W 075°30'0 0.0
2017-Jun-22 19:30N 39°42' W 075°30'0 0.0
2017-Jun-22 18:57N 39°42' W 075°30'0 0.0
2017-Jun-22 18:30N 39°42' W 075°30'0 0.0
2017-Jun-22 18:00N 39°42' W 075°30'0 0.1
2017-Jun-22 17:27N 39°42' W 075°30'0 0.4
2017-Jun-22 16:57N 39°43' W 075°30'0 0.0
2017-Jun-22 16:30N 39°43' W 075°30'0 0.0
2017-Jun-22 16:00N 39°43' W 075°30'0 0.0
2017-Jun-22 15:30N 39°43' W 075°30'0 0.0
2017-Jun-22 15:00N 39°43' W 075°30'0 0.0
2017-Jun-22 14:30N 39°43' W 075°30'0 0.0
2017-Jun-22 13:30N 39°43' W 075°30'0 0.0
2017-Jun-22 13:00N 39°43' W 075°30'0 0.0
2017-Jun-22 12:30N 39°43' W 075°30'0 0.0
2017-Jun-22 12:00N 39°43' W 075°30'0 0.0
2017-Jun-22 11:30N 39°43' W 075°30'0 0.3
2017-Jun-22 11:00N 39°42' W 075°30'0 0.1
2017-Jun-22 10:30N 39°42' W 075°30'0 0.0
2017-Jun-22 10:00N 39°42' W 075°30'0 0.0
2017-Jun-22 09:30N 39°42' W 075°30'0 0.0
2017-Jun-22 09:00N 39°42' W 075°30'0 0.0
2017-Jun-22 08:30N 39°42' W 075°30'0 0.0
2017-Jun-22 08:00N 39°42' W 075°30'0 0.0
2017-Jun-22 07:30N 39°42' W 075°30'0 0.0
2017-Jun-22 07:00N 39°42' W 075°30'0 0.0
2017-Jun-22 06:30N 39°42' W 075°30'0 0.0
2017-Jun-22 06:00N 39°42' W 075°30'0 0.0
2017-Jun-22 05:30N 39°42' W 075°30'0 0.1
2017-Jun-22 05:00N 39°42' W 075°30'0 0.2
2017-Jun-22 04:30N 39°43' W 075°30'0 0.1
2017-Jun-22 04:00N 39°43' W 075°30'0 0.0
2017-Jun-22 03:30N 39°43' W 075°30'0 0.0
2017-Jun-22 03:00N 39°43' W 075°30'0 0.0
2017-Jun-22 02:30N 39°43' W 075°30'0 0.0
2017-Jun-22 02:00N 39°43' W 075°30'0 0.0
2017-Jun-22 01:30N 39°43' W 075°30'0 0.0
2017-Jun-22 01:00N 39°43' W 075°30'0 0.0
2017-Jun-22 00:30N 39°43' W 075°30'0 0.0
2017-Jun-22 00:00N 39°43' W 075°30'0 0.0
2017-Jun-21 23:30N 39°43' W 075°30'0 0.0
2017-Jun-21 23:00N 39°43' W 075°30'0 0.2
2017-Jun-21 22:30N 39°43' W 075°30'0 0.1
2017-Jun-21 22:00N 39°42' W 075°30'0 0.1
2017-Jun-21 21:30N 39°42' W 075°30'0 0.1
2017-Jun-21 21:00N 39°42' W 075°30'0 0.0
2017-Jun-21 20:30N 39°42' W 075°30'0 0.0
2017-Jun-21 20:00N 39°42' W 075°30'0 0.0
2017-Jun-21 19:30N 39°42' W 075°30'0 0.0
2017-Jun-21 19:00N 39°42' W 075°30'0 0.0
2017-Jun-21 18:30N 39°42' W 075°30'0 0.0
2017-Jun-21 18:00N 39°42' W 075°30'0 0.0
2017-Jun-21 17:30N 39°42' W 075°30'0 0.0
2017-Jun-21 17:00N 39°42' W 075°30'0 0.0
2017-Jun-21 16:30N 39°42' W 075°30'0 0.2
2017-Jun-21 16:00N 39°43' W 075°30'0 0.1
2017-Jun-21 15:30N 39°43' W 075°30'0 0.1
2017-Jun-21 15:00N 39°43' W 075°30'0 0.0
2017-Jun-21 14:00N 39°43' W 075°30'0 0.0
2017-Jun-21 13:30N 39°43' W 075°30'0 0.0
2017-Jun-21 13:00N 39°43' W 075°30'0 0.0
2017-Jun-21 12:30N 39°43' W 075°30'0 0.0
2017-Jun-21 12:00N 39°43' W 075°30'0 0.0
2017-Jun-21 11:30N 39°43' W 075°30'0 0.0
2017-Jun-21 11:00N 39°43' W 075°30'0 0.0
2017-Jun-21 10:30N 39°43' W 075°30'0 0.2
2017-Jun-21 10:00N 39°43' W 075°30'0 0.2
2017-Jun-21 09:30N 39°42' W 075°30'0 0.0
2017-Jun-21 09:00N 39°42' W 075°30'0 0.0
2017-Jun-21 08:30N 39°42' W 075°30'0 0.0
2017-Jun-21 08:00N 39°42' W 075°30'0 0.0
2017-Jun-21 07:30N 39°42' W 075°30'0 0.0
2017-Jun-21 07:00N 39°42' W 075°30'0 0.0
2017-Jun-21 06:30N 39°42' W 075°30'0 0.0
2017-Jun-21 06:00N 39°42' W 075°30'0 0.0
2017-Jun-21 05:30N 39°42' W 075°30'0 0.0
2017-Jun-21 05:00N 39°42' W 075°30'0 0.0
2017-Jun-21 04:30N 39°42' W 075°30'0 0.1
2017-Jun-21 04:00N 39°42' W 075°30'0 0.2
2017-Jun-21 03:30N 39°43' W 075°30'0 0.1
2017-Jun-21 03:00N 39°43' W 075°30'0 0.0
2017-Jun-21 02:27N 39°43' W 075°30'0 0.0
2017-Jun-21 02:00N 39°43' W 075°30'0 0.0
2017-Jun-21 01:30N 39°43' W 075°30'0 0.0
2017-Jun-21 00:57N 39°43' W 075°30'0 0.0
2017-Jun-21 00:30N 39°43' W 075°30'0 0.0
2017-Jun-21 00:00N 39°43' W 075°30'0 0.9
2017-Jun-20 23:30N 39°42' W 075°31'4 7.2
2017-Jun-20 23:00N 39°39' W 075°33'510.5
2017-Jun-20 22:31N 39°34' W 075°33'3 6.6
2017-Jun-20 22:01N 39°33' W 075°37'510.7
2017-Jun-20 21:30N 39°32' W 075°44'4 7.1
2017-Jun-20 21:00N 39°32' W 075°48'5 9.7
2017-Jun-20 20:30N 39°30' W 075°55'611.2
2017-Jun-20 20:00N 39°27' W 075°60'510.4
2017-Jun-20 19:30N 39°23' W 076°05'510.6
2017-Jun-20 19:00N 39°21' W 076°11'5 9.9
2017-Jun-20 18:29N 39°16' W 076°14'8 9.3
2017-Jun-20 17:34N 39°09' W 076°20'110.1
2017-Jun-20 17:30N 39°09' W 076°21'510.1
2017-Jun-20 17:01N 39°11' W 076°27'5 9.6
2017-Jun-20 16:30N 39°13' W 076°32'1 1.4
2017-Jun-20 15:26N 39°14' W 076°34'0 0.0
2017-Jun-20 14:59N 39°14' W 076°34'0 0.0
2017-Jun-20 14:29N 39°14' W 076°34'0 0.0
2017-Jun-20 13:29N 39°14' W 076°34'0 0.0
2017-Jun-20 12:59N 39°14' W 076°34'0 0.0
2017-Jun-20 12:26N 39°14' W 076°34'0 0.0
2017-Jun-20 11:59N 39°14' W 076°34'0 0.0
2017-Jun-20 11:26N 39°14' W 076°34'0 0.0
2017-Jun-20 10:59N 39°14' W 076°34'0 0.0
2017-Jun-20 10:29N 39°13' W 076°34'0 0.0
2017-Jun-20 09:59N 39°13' W 076°34'0 0.0
2017-Jun-20 09:29N 39°13' W 076°34'0 0.0
2017-Jun-20 08:59N 39°13' W 076°34'0 0.0
2017-Jun-20 08:29N 39°13' W 076°34'0 0.0
2017-Jun-20 07:59N 39°13' W 076°34'0 0.0
2017-Jun-20 07:29N 39°13' W 076°34'0 0.0
2017-Jun-20 06:59N 39°13' W 076°34'0 0.0
2017-Jun-20 06:29N 39°14' W 076°34'0 0.0
2017-Jun-20 05:59N 39°13' W 076°34'0 0.0
2017-Jun-20 05:29N 39°13' W 076°34'0 0.0
2017-Jun-20 04:59N 39°13' W 076°34'0 0.0
2017-Jun-20 04:29N 39°14' W 076°34'0 0.0
2017-Jun-20 03:59N 39°13' W 076°34'0 0.0
2017-Jun-20 03:29N 39°13' W 076°34'0 0.0
2017-Jun-20 02:59N 39°13' W 076°34'0 0.0
2017-Jun-20 02:29N 39°13' W 076°34'0 0.0
2017-Jun-20 01:59N 39°13' W 076°34'0 0.0
2017-Jun-20 01:26N 39°13' W 076°34'0 0.5
2017-Jun-20 01:00N 39°13' W 076°34'1 1.5
2017-Jun-20 00:30N 39°13' W 076°35'0 0.0
2017-Jun-19 23:58N 39°13' W 076°35'0 0.0
2017-Jun-19 23:28N 39°13' W 076°35'0 0.0
2017-Jun-19 22:55N 39°13' W 076°35'0 0.0
2017-Jun-19 22:28N 39°13' W 076°35'0 0.0
2017-Jun-19 21:13N 39°13' W 076°35'0 0.0
2017-Jun-19 20:58N 39°13' W 076°35'0 0.0
2017-Jun-19 20:16N 39°13' W 076°35'0 0.0
2017-Jun-19 19:58N 39°13' W 076°35'0 0.0
2017-Jun-19 19:28N 39°13' W 076°35'0 0.0
2017-Jun-19 18:49N 39°13' W 076°35'0 0.0
2017-Jun-19 18:28N 39°13' W 076°35'0 0.0
2017-Jun-19 17:58N 39°13' W 076°35'0 0.0
2017-Jun-19 17:28N 39°13' W 076°35'0 0.0
2017-Jun-19 16:58N 39°13' W 076°35'0 0.0
2017-Jun-19 16:28N 39°13' W 076°35'0 0.0
2017-Jun-19 15:58N 39°13' W 076°35'0 0.0
2017-Jun-19 15:28N 39°13' W 076°35'0 0.0
2017-Jun-19 14:58N 39°13' W 076°35'0 0.0
2017-Jun-19 13:58N 39°13' W 076°35'0 0.0
2017-Jun-19 13:28N 39°13' W 076°35'0 0.0
2017-Jun-19 12:58N 39°13' W 076°35'0 0.0
2017-Jun-19 12:28N 39°13' W 076°35'0 0.0
2017-Jun-19 11:58N 39°13' W 076°35'0 0.0
2017-Jun-19 11:28N 39°13' W 076°35'0 0.0
2017-Jun-19 10:58N 39°13' W 076°35'0 0.0
2017-Jun-19 10:28N 39°13' W 076°35'0 0.0
2017-Jun-19 09:58N 39°13' W 076°35'0 0.0
2017-Jun-19 09:28N 39°13' W 076°35'0 0.0
2017-Jun-19 08:55N 39°13' W 076°35'0 0.0
2017-Jun-19 08:28N 39°13' W 076°35'0 0.0
2017-Jun-19 07:58N 39°13' W 076°35'0 0.0
2017-Jun-19 07:28N 39°13' W 076°35'0 0.0
2017-Jun-19 06:58N 39°13' W 076°35'0 0.0
2017-Jun-19 06:28N 39°13' W 076°35'0 0.0
2017-Jun-19 05:58N 39°13' W 076°35'0 0.0
2017-Jun-19 05:28N 39°13' W 076°35'0 0.0
2017-Jun-19 04:58N 39°13' W 076°35'0 0.0
2017-Jun-19 04:28N 39°13' W 076°35'0 0.0
2017-Jun-19 03:58N 39°13' W 076°35'0 0.0
2017-Jun-19 03:28N 39°13' W 076°35'0 0.0
2017-Jun-19 02:58N 39°13' W 076°35'0 0.0
2017-Jun-19 02:28N 39°13' W 076°35'0 0.0
2017-Jun-19 01:55N 39°13' W 076°35'0 0.0
2017-Jun-19 01:28N 39°13' W 076°35'0 0.0
2017-Jun-19 00:58N 39°13' W 076°35'0 0.0
2017-Jun-19 00:22N 39°13' W 076°35'0 0.0
2017-Jun-18 23:13N 39°13' W 076°35'0 0.0
2017-Jun-18 22:58N 39°13' W 076°35'0 0.0
2017-Jun-18 22:28N 39°13' W 076°35'0 0.0
2017-Jun-18 21:52N 39°13' W 076°35'0 0.0
2017-Jun-18 21:22N 39°13' W 076°35'0 0.0
2017-Jun-18 20:55N 39°13' W 076°35'0 0.0
2017-Jun-18 17:25N 39°13' W 076°35'0 0.0
2017-Jun-18 16:37N 39°13' W 076°35'0 0.0
2017-Jun-18 15:55N 39°13' W 076°35'0 0.0
2017-Jun-18 15:28N 39°13' W 076°35'0 0.0
2017-Jun-18 14:46N 39°13' W 076°35'0 0.0
2017-Jun-18 13:49N 39°13' W 076°35'0 0.0
2017-Jun-18 13:27N 39°13' W 076°35'2 4.5
2017-Jun-18 13:00N 39°14' W 076°33'3 1.8
2017-Jun-18 11:34N 39°16' W 076°35'0 3.0
2017-Jun-18 11:30N 39°16' W 076°35'3 6.0
2017-Jun-18 11:00N 39°13' W 076°33'1 2.7
2017-Jun-18 10:30N 39°13' W 076°35'0 0.0
2017-Jun-18 10:00N 39°13' W 076°35'0 0.0
2017-Jun-18 09:30N 39°13' W 076°35'0 0.0
2017-Jun-18 09:00N 39°13' W 076°35'0 0.0
2017-Jun-18 08:30N 39°13' W 076°35'0 0.0
2017-Jun-18 08:00N 39°13' W 076°35'0 0.0
2017-Jun-18 07:30N 39°13' W 076°35'0 0.0
2017-Jun-18 07:00N 39°13' W 076°35'0 0.5
2017-Jun-18 06:30N 39°13' W 076°35'2 4.8
2017-Jun-18 06:00N 39°13' W 076°32'510.0
2017-Jun-18 05:30N 39°11' W 076°26'510.1
2017-Jun-18 05:00N 39°09' W 076°20'5 9.4
2017-Jun-18 04:29N 39°12' W 076°15'7 9.6
2017-Jun-18 03:47N 39°19' W 076°13'3 9.9
2017-Jun-18 03:29N 39°21' W 076°10'510.1
2017-Jun-18 03:01N 39°23' W 076°05'510.1
2017-Jun-18 02:30N 39°27' W 075°60'510.3
2017-Jun-18 02:01N 39°30' W 075°55'510.0
2017-Jun-18 01:31N 39°32' W 075°49'510.0
2017-Jun-18 01:01N 39°33' W 075°43'510.8
2017-Jun-18 00:30N 39°33' W 075°36'2 3.3
2017-Jun-18 00:01N 39°35' W 075°35'0 0.7
2017-Jun-17 23:31N 39°35' W 075°36'0 0.0
2017-Jun-17 22:59N 39°35' W 075°36'0 0.0
2017-Jun-17 22:29N 39°35' W 075°36'0 0.0
2017-Jun-17 21:59N 39°35' W 075°36'0 0.0
2017-Jun-17 21:29N 39°35' W 075°36'0 0.0
2017-Jun-17 20:59N 39°35' W 075°36'0 0.0
2017-Jun-17 20:29N 39°35' W 075°36'0 0.0
2017-Jun-17 19:59N 39°35' W 075°36'0 0.0
2017-Jun-17 19:29N 39°35' W 075°36'0 0.0
2017-Jun-17 18:59N 39°35' W 075°36'0 0.0
2017-Jun-17 18:29N 39°35' W 075°36'0 0.0
2017-Jun-17 17:59N 39°35' W 075°36'0 0.0
2017-Jun-17 17:29N 39°35' W 075°36'0 0.0
2017-Jun-17 16:59N 39°35' W 075°36'0 0.0
2017-Jun-17 16:29N 39°35' W 075°36'0 0.0
2017-Jun-17 15:59N 39°35' W 075°36'0 0.0
2017-Jun-17 15:29N 39°35' W 075°36'0 0.0
2017-Jun-17 14:59N 39°35' W 075°36'0 0.0
2017-Jun-17 14:29N 39°35' W 075°36'0 0.0
2017-Jun-17 13:29N 39°35' W 075°36'0 0.0
2017-Jun-17 12:59N 39°35' W 075°36'0 0.0
2017-Jun-17 12:29N 39°35' W 075°36'0 0.0
2017-Jun-17 11:59N 39°35' W 075°36'0 0.0
2017-Jun-17 11:29N 39°35' W 075°36'0 0.0
2017-Jun-17 10:59N 39°35' W 075°36'0 0.0
2017-Jun-17 10:29N 39°35' W 075°36'0 0.0
2017-Jun-17 09:59N 39°35' W 075°36'0 0.0
2017-Jun-17 09:29N 39°35' W 075°36'0 0.0
2017-Jun-17 08:59N 39°35' W 075°36'0 0.0
2017-Jun-17 08:29N 39°35' W 075°36'0 0.0
2017-Jun-17 07:59N 39°35' W 075°36'0 0.0
2017-Jun-17 07:26N 39°35' W 075°36'0 0.0
2017-Jun-17 06:59N 39°35' W 075°36'0 0.0
2017-Jun-17 06:30N 39°35' W 075°36'0 0.1
2017-Jun-17 06:00N 39°35' W 075°36'3 6.8
2017-Jun-17 05:31N 39°33' W 075°33'0 0.1
2017-Jun-17 04:59N 39°33' W 075°33'0 0.2
2017-Jun-17 04:29N 39°32' W 075°33'0 0.0
2017-Jun-17 03:59N 39°32' W 075°33'0 0.0
2017-Jun-17 03:29N 39°32' W 075°33'0 0.0
2017-Jun-17 02:59N 39°32' W 075°33'0 0.0
2017-Jun-17 02:29N 39°32' W 075°33'0 0.0
2017-Jun-17 01:59N 39°32' W 075°33'0 0.0
2017-Jun-17 01:29N 39°32' W 075°33'0 0.0
2017-Jun-17 00:59N 39°32' W 075°33'0 0.0
2017-Jun-17 00:29N 39°32' W 075°33'0 0.0
2017-Jun-16 23:59N 39°32' W 075°33'1 1.1
2017-Jun-16 23:30N 39°33' W 075°32'5 9.9
2017-Jun-16 23:00N 39°38' W 075°35'5 9.7
2017-Jun-16 22:30N 39°42' W 075°31'5 9.2
2017-Jun-16 22:00N 39°46' W 075°29'4 8.6
2017-Jun-16 21:30N 39°49' W 075°24'4 8.2
2017-Jun-16 21:00N 39°51' W 075°20'4 8.2
2017-Jun-16 20:30N 39°51' W 075°15'1 2.7
2017-Jun-16 19:59N 39°52' W 075°13'1 1.8
2017-Jun-16 19:30N 39°52' W 075°12'2 2.9
2017-Jun-16 18:59N 39°53' W 075°11'0 0.0
2017-Jun-16 18:29N 39°53' W 075°11'2 4.0
2017-Jun-16 18:01N 39°52' W 075°13'1 1.1
2017-Jun-16 17:30N 39°52' W 075°13'0 0.0
2017-Jun-16 17:00N 39°52' W 075°13'0 0.0
2017-Jun-16 16:30N 39°52' W 075°13'0 0.0
2017-Jun-16 16:01N 39°52' W 075°13'0 0.1
2017-Jun-16 15:30N 39°52' W 075°13'2 4.8
2017-Jun-16 15:00N 39°51' W 075°16'8 7.9
2017-Jun-16 14:00N 39°48' W 075°26'4 8.3
2017-Jun-16 13:30N 39°45' W 075°29'  
Track history (hours):
 
Tides and Currents Weather Stations Pressure Air Temp Water Temp Dewpoint Dewpoint Depression Visibility Wind Speed Wind Dir Waves Ship Positions

Linda Moran

Owner: MORAN TOWING CORP., NEW CANAAN, CT. More information available from US FCC via Universal Licensing System and Coast Guard Vessel Documentation Center.

Last reported at 2017-Jun-26 13:28 UTC. Time now 2017-Jun-26 14:09 UTC.
Position N 39°35' W 075°36'.

Length 156 m; draft 7.6 m.

Type: . MMSI: 367349860.

Date/timePositionNaut miles runAvg speedWind from/ knotsBaromVisibWave heightAir tempDewpointWater temp
2017-Jun-26 13:28N 39°35' W 075°36'0 0.0
2017-Jun-26 12:55N 39°35' W 075°36'0 0.0
2017-Jun-26 12:28N 39°35' W 075°36'0 0.0
2017-Jun-26 11:58N 39°35' W 075°36'0 0.0
2017-Jun-26 11:28N 39°35' W 075°36'0 0.0
2017-Jun-26 10:58N 39°35' W 075°36'0 0.0
2017-Jun-26 10:28N 39°35' W 075°36'0 0.0
2017-Jun-26 09:58N 39°35' W 075°36'0 0.0
2017-Jun-26 09:28N 39°35' W 075°36'0 0.0
2017-Jun-26 08:58N 39°35' W 075°36'0 0.0
2017-Jun-26 08:28N 39°35' W 075°36'0 0.0
2017-Jun-26 07:58N 39°35' W 075°36'0 0.0
2017-Jun-26 07:28N 39°35' W 075°36'0 0.0
2017-Jun-26 06:58N 39°35' W 075°36'0 0.0
2017-Jun-26 06:28N 39°35' W 075°36'0 0.0
2017-Jun-26 05:58N 39°35' W 075°36'0 0.0
2017-Jun-26 05:28N 39°35' W 075°36'0 0.0
2017-Jun-26 04:58N 39°35' W 075°36'0 0.0
2017-Jun-26 04:28N 39°35' W 075°36'0 0.0
2017-Jun-26 03:58N 39°35' W 075°36'0 0.0
2017-Jun-26 03:28N 39°35' W 075°36'0 0.0
2017-Jun-26 02:58N 39°35' W 075°36'0 0.0
2017-Jun-26 02:28N 39°35' W 075°36'0 0.0
2017-Jun-26 01:58N 39°35' W 075°36'0 0.0
2017-Jun-26 01:28N 39°35' W 075°36'0 0.0
2017-Jun-26 00:58N 39°35' W 075°36'1 1.1
2017-Jun-26 00:30N 39°35' W 075°35'3 5.0
2017-Jun-25 23:58N 39°33' W 075°33'0 0.0
2017-Jun-25 23:28N 39°33' W 075°33'0 0.0
2017-Jun-25 22:58N 39°33' W 075°33'0 0.0
2017-Jun-25 22:28N 39°33' W 075°33'0 0.0
2017-Jun-25 21:58N 39°33' W 075°33'0 0.0
2017-Jun-25 21:28N 39°33' W 075°33'0 0.0
2017-Jun-25 20:58N 39°33' W 075°33'0 0.0
2017-Jun-25 20:28N 39°33' W 075°33'0 0.0
2017-Jun-25 19:58N 39°33' W 075°33'0 0.0
2017-Jun-25 19:28N 39°33' W 075°33'0 0.1
2017-Jun-25 18:58N 39°33' W 075°33'0 0.2
2017-Jun-25 18:28N 39°33' W 075°33'0 0.1
2017-Jun-25 17:58N 39°33' W 075°33'0 0.0
2017-Jun-25 17:28N 39°33' W 075°33'0 0.0
2017-Jun-25 16:58N 39°33' W 075°33'0 0.0
2017-Jun-25 16:28N 39°33' W 075°33'0 0.0
2017-Jun-25 15:58N 39°33' W 075°33'0 0.0
2017-Jun-25 15:28N 39°33' W 075°33'0 0.0
2017-Jun-25 14:58N 39°33' W 075°33'0 0.0
2017-Jun-25 13:58N 39°33' W 075°33'0 0.0
2017-Jun-25 13:28N 39°33' W 075°33'2 5.1
2017-Jun-25 13:00N 39°35' W 075°34'5 9.0
2017-Jun-25 12:30N 39°40' W 075°32'3 6.3
2017-Jun-25 12:00N 39°42' W 075°30'0 0.0
2017-Jun-25 11:30N 39°42' W 075°30'0 0.0
2017-Jun-25 11:00N 39°42' W 075°30'0 0.0
2017-Jun-25 10:30N 39°42' W 075°30'0 0.0
2017-Jun-25 10:00N 39°42' W 075°30'0 0.0
2017-Jun-25 09:30N 39°42' W 075°30'0 0.0
2017-Jun-25 09:00N 39°42' W 075°30'0 0.0
2017-Jun-25 08:30N 39°42' W 075°30'0 0.1
2017-Jun-25 08:00N 39°42' W 075°30'0 0.0
2017-Jun-25 07:30N 39°42' W 075°30'0 0.2
2017-Jun-25 07:00N 39°42' W 075°30'0 0.2
2017-Jun-25 06:30N 39°43' W 075°30'0 0.0
2017-Jun-25 06:00N 39°43' W 075°30'0 0.0
2017-Jun-25 05:30N 39°43' W 075°30'0 0.0
2017-Jun-25 05:00N 39°43' W 075°30'0 0.0
2017-Jun-25 04:27N 39°43' W 075°30'0 0.0
2017-Jun-25 04:00N 39°43' W 075°30'0 0.0
2017-Jun-25 03:30N 39°43' W 075°30'0 0.0
2017-Jun-25 02:57N 39°43' W 075°30'0 0.0
2017-Jun-25 02:30N 39°43' W 075°30'0 0.0
2017-Jun-25 02:00N 39°43' W 075°30'0 0.0
2017-Jun-25 01:30N 39°43' W 075°30'0 0.0
2017-Jun-25 01:00N 39°43' W 075°30'0 0.3
2017-Jun-25 00:30N 39°42' W 075°30'0 0.1
2017-Jun-25 00:00N 39°42' W 075°30'0 0.0
2017-Jun-24 23:30N 39°42' W 075°30'0 0.0
2017-Jun-24 23:00N 39°42' W 075°30'0 0.0
2017-Jun-24 22:27N 39°42' W 075°30'0 0.0
2017-Jun-24 22:00N 39°42' W 075°30'0 0.0
2017-Jun-24 21:27N 39°42' W 075°30'0 0.0
2017-Jun-24 21:00N 39°42' W 075°30'0 0.0
2017-Jun-24 20:30N 39°42' W 075°30'0 0.0
2017-Jun-24 20:00N 39°42' W 075°30'0 0.0
2017-Jun-24 19:30N 39°42' W 075°30'0 0.1
2017-Jun-24 19:00N 39°42' W 075°30'0 0.1
2017-Jun-24 18:30N 39°42' W 075°30'0 0.1
2017-Jun-24 18:00N 39°43' W 075°30'0 0.0
2017-Jun-24 17:30N 39°43' W 075°30'0 0.1
2017-Jun-24 17:00N 39°43' W 075°30'0 0.0
2017-Jun-24 16:30N 39°43' W 075°30'0 0.1
2017-Jun-24 16:00N 39°43' W 075°30'0 0.0
2017-Jun-24 15:30N 39°43' W 075°30'0 0.0
2017-Jun-24 15:00N 39°43' W 075°30'0 0.0
2017-Jun-24 14:00N 39°43' W 075°30'0 0.0
2017-Jun-24 13:30N 39°43' W 075°30'0 0.2
2017-Jun-24 13:00N 39°42' W 075°30'0 0.2
2017-Jun-24 12:30N 39°42' W 075°30'0 0.0
2017-Jun-24 12:00N 39°42' W 075°30'0 0.0
2017-Jun-24 11:30N 39°42' W 075°30'0 0.0
2017-Jun-24 11:00N 39°42' W 075°30'0 0.0
2017-Jun-24 10:30N 39°42' W 075°30'0 0.1
2017-Jun-24 10:00N 39°42' W 075°30'0 0.0
2017-Jun-24 09:30N 39°42' W 075°30'0 0.0
2017-Jun-24 09:00N 39°42' W 075°30'0 0.0
2017-Jun-24 08:30N 39°42' W 075°30'0 0.0
2017-Jun-24 08:00N 39°42' W 075°30'0 0.0
2017-Jun-24 07:27N 39°42' W 075°30'0 0.2
2017-Jun-24 07:00N 39°43' W 075°30'0 0.2
2017-Jun-24 06:30N 39°43' W 075°30'0 0.0
2017-Jun-24 06:00N 39°43' W 075°30'0 0.0
2017-Jun-24 05:30N 39°43' W 075°30'0 0.0
2017-Jun-24 05:00N 39°43' W 075°30'0 0.0
2017-Jun-24 04:30N 39°43' W 075°30'0 0.0
2017-Jun-24 04:00N 39°43' W 075°30'0 0.0
2017-Jun-24 03:27N 39°43' W 075°30'0 0.0
2017-Jun-24 03:00N 39°43' W 075°30'0 0.0
2017-Jun-24 02:30N 39°43' W 075°30'0 0.0
2017-Jun-24 02:00N 39°43' W 075°30'0 0.0
2017-Jun-24 01:30N 39°43' W 075°30'0 0.0
2017-Jun-24 01:00N 39°43' W 075°30'0 0.0
2017-Jun-24 00:30N 39°43' W 075°30'0 0.0
2017-Jun-24 00:00N 39°43' W 075°30'0 0.0
2017-Jun-23 23:30N 39°43' W 075°30'0 0.3
2017-Jun-23 23:00N 39°42' W 075°30'0 0.0
2017-Jun-23 22:30N 39°42' W 075°30'0 0.0
2017-Jun-23 22:00N 39°42' W 075°30'0 0.0
2017-Jun-23 21:30N 39°42' W 075°30'0 0.0
2017-Jun-23 21:00N 39°42' W 075°30'0 0.0
2017-Jun-23 20:27N 39°42' W 075°30'0 0.0
2017-Jun-23 20:00N 39°42' W 075°30'0 0.0
2017-Jun-23 19:30N 39°42' W 075°30'0 0.0
2017-Jun-23 19:00N 39°42' W 075°30'0 0.3
2017-Jun-23 18:30N 39°43' W 075°30'0 0.1
2017-Jun-23 18:00N 39°43' W 075°30'0 0.0
2017-Jun-23 17:30N 39°43' W 075°30'0 0.0
2017-Jun-23 17:00N 39°43' W 075°30'0 0.0
2017-Jun-23 16:30N 39°43' W 075°30'0 0.0
2017-Jun-23 16:00N 39°43' W 075°30'0 0.0
2017-Jun-23 15:30N 39°43' W 075°30'0 0.0
2017-Jun-23 15:00N 39°43' W 075°30'0 0.0
2017-Jun-23 14:00N 39°43' W 075°30'0 0.0
2017-Jun-23 13:30N 39°43' W 075°30'0 0.0
2017-Jun-23 13:00N 39°43' W 075°30'0 0.0
2017-Jun-23 12:30N 39°43' W 075°30'0 0.0
2017-Jun-23 12:00N 39°43' W 075°30'0 0.3
2017-Jun-23 11:30N 39°42' W 075°30'0 0.1
2017-Jun-23 11:00N 39°42' W 075°30'0 0.0
2017-Jun-23 10:30N 39°42' W 075°30'0 0.0
2017-Jun-23 10:00N 39°42' W 075°30'0 0.0
2017-Jun-23 09:30N 39°42' W 075°30'0 0.0
2017-Jun-23 09:00N 39°42' W 075°30'0 0.0
2017-Jun-23 08:30N 39°42' W 075°30'0 0.0
2017-Jun-23 08:00N 39°42' W 075°30'0 0.0
2017-Jun-23 07:30N 39°42' W 075°30'0 0.0
2017-Jun-23 07:00N 39°42' W 075°30'0 0.0
2017-Jun-23 06:30N 39°42' W 075°30'0 0.0
2017-Jun-23 06:00N 39°42' W 075°30'0 0.3
2017-Jun-23 05:30N 39°43' W 075°30'0 0.1
2017-Jun-23 04:57N 39°43' W 075°30'0 0.0
2017-Jun-23 04:30N 39°43' W 075°30'0 0.0
2017-Jun-23 04:00N 39°43' W 075°30'0 0.0
2017-Jun-23 03:30N 39°43' W 075°30'0 0.0
2017-Jun-23 03:00N 39°43' W 075°30'0 0.0
2017-Jun-23 02:27N 39°43' W 075°30'0 0.0
2017-Jun-23 02:00N 39°43' W 075°30'0 0.0
2017-Jun-23 01:30N 39°43' W 075°30'0 0.0
2017-Jun-23 01:00N 39°43' W 075°30'0 0.0
2017-Jun-23 00:30N 39°43' W 075°30'0 0.0
2017-Jun-23 00:00N 39°43' W 075°30'0 0.0
2017-Jun-22 23:30N 39°43' W 075°30'0 0.0
2017-Jun-22 23:00N 39°43' W 075°30'0 0.3
2017-Jun-22 22:30N 39°42' W 075°30'0 0.1
2017-Jun-22 22:00N 39°42' W 075°30'0 0.0
2017-Jun-22 21:30N 39°42' W 075°30'0 0.0
2017-Jun-22 21:00N 39°42' W 075°30'0 0.0
2017-Jun-22 20:30N 39°42' W 075°30'0 0.0
2017-Jun-22 20:00N 39°42' W 075°30'0 0.0
2017-Jun-22 19:30N 39°42' W 075°30'0 0.0
2017-Jun-22 18:57N 39°42' W 075°30'0 0.0
2017-Jun-22 18:30N 39°42' W 075°30'0 0.0
2017-Jun-22 18:00N 39°42' W 075°30'0 0.1
2017-Jun-22 17:27N 39°42' W 075°30'0 0.4
2017-Jun-22 16:57N 39°43' W 075°30'0 0.0
2017-Jun-22 16:30N 39°43' W 075°30'0 0.0
2017-Jun-22 16:00N 39°43' W 075°30'0 0.0
2017-Jun-22 15:30N 39°43' W 075°30'0 0.0
2017-Jun-22 15:00N 39°43' W 075°30'0 0.0
2017-Jun-22 14:30N 39°43' W 075°30'0 0.0
2017-Jun-22 13:30N 39°43' W 075°30'0 0.0
2017-Jun-22 13:00N 39°43' W 075°30'0 0.0
2017-Jun-22 12:30N 39°43' W 075°30'0 0.0
2017-Jun-22 12:00N 39°43' W 075°30'0 0.0
2017-Jun-22 11:30N 39°43' W 075°30'0 0.3
2017-Jun-22 11:00N 39°42' W 075°30'0 0.1
2017-Jun-22 10:30N 39°42' W 075°30'0 0.0
2017-Jun-22 10:00N 39°42' W 075°30'0 0.0
2017-Jun-22 09:30N 39°42' W 075°30'0 0.0
2017-Jun-22 09:00N 39°42' W 075°30'0 0.0
2017-Jun-22 08:30N 39°42' W 075°30'0 0.0
2017-Jun-22 08:00N 39°42' W 075°30'0 0.0
2017-Jun-22 07:30N 39°42' W 075°30'0 0.0
2017-Jun-22 07:00N 39°42' W 075°30'0 0.0
2017-Jun-22 06:30N 39°42' W 075°30'0 0.0
2017-Jun-22 06:00N 39°42' W 075°30'0 0.0
2017-Jun-22 05:30N 39°42' W 075°30'0 0.1
2017-Jun-22 05:00N 39°42' W 075°30'0 0.2
2017-Jun-22 04:30N 39°43' W 075°30'0 0.1
2017-Jun-22 04:00N 39°43' W 075°30'0 0.0
2017-Jun-22 03:30N 39°43' W 075°30'0 0.0
2017-Jun-22 03:00N 39°43' W 075°30'0 0.0
2017-Jun-22 02:30N 39°43' W 075°30'0 0.0
2017-Jun-22 02:00N 39°43' W 075°30'0 0.0
2017-Jun-22 01:30N 39°43' W 075°30'0 0.0
2017-Jun-22 01:00N 39°43' W 075°30'0 0.0
2017-Jun-22 00:30N 39°43' W 075°30'0 0.0
2017-Jun-22 00:00N 39°43' W 075°30'0 0.0
2017-Jun-21 23:30N 39°43' W 075°30'0 0.0
2017-Jun-21 23:00N 39°43' W 075°30'0 0.2
2017-Jun-21 22:30N 39°43' W 075°30'0 0.1
2017-Jun-21 22:00N 39°42' W 075°30'0 0.1
2017-Jun-21 21:30N 39°42' W 075°30'0 0.1
2017-Jun-21 21:00N 39°42' W 075°30'0 0.0
2017-Jun-21 20:30N 39°42' W 075°30'0 0.0
2017-Jun-21 20:00N 39°42' W 075°30'0 0.0
2017-Jun-21 19:30N 39°42' W 075°30'0 0.0
2017-Jun-21 19:00N 39°42' W 075°30'0 0.0
2017-Jun-21 18:30N 39°42' W 075°30'0 0.0
2017-Jun-21 18:00N 39°42' W 075°30'0 0.0
2017-Jun-21 17:30N 39°42' W 075°30'0 0.0
2017-Jun-21 17:00N 39°42' W 075°30'0 0.0
2017-Jun-21 16:30N 39°42' W 075°30'0 0.2
2017-Jun-21 16:00N 39°43' W 075°30'0 0.1
2017-Jun-21 15:30N 39°43' W 075°30'0 0.1
2017-Jun-21 15:00N 39°43' W 075°30'0 0.0
2017-Jun-21 14:00N 39°43' W 075°30'0 0.0
2017-Jun-21 13:30N 39°43' W 075°30'0 0.0
2017-Jun-21 13:00N 39°43' W 075°30'0 0.0
2017-Jun-21 12:30N 39°43' W 075°30'0 0.0
2017-Jun-21 12:00N 39°43' W 075°30'0 0.0
2017-Jun-21 11:30N 39°43' W 075°30'0 0.0
2017-Jun-21 11:00N 39°43' W 075°30'0 0.0
2017-Jun-21 10:30N 39°43' W 075°30'0 0.2
2017-Jun-21 10:00N 39°43' W 075°30'0 0.2
2017-Jun-21 09:30N 39°42' W 075°30'0 0.0
2017-Jun-21 09:00N 39°42' W 075°30'0 0.0
2017-Jun-21 08:30N 39°42' W 075°30'0 0.0
2017-Jun-21 08:00N 39°42' W 075°30'0 0.0
2017-Jun-21 07:30N 39°42' W 075°30'0 0.0
2017-Jun-21 07:00N 39°42' W 075°30'0 0.0
2017-Jun-21 06:30N 39°42' W 075°30'0 0.0
2017-Jun-21 06:00N 39°42' W 075°30'0 0.0
2017-Jun-21 05:30N 39°42' W 075°30'0 0.0
2017-Jun-21 05:00N 39°42' W 075°30'0 0.0
2017-Jun-21 04:30N 39°42' W 075°30'0 0.1
2017-Jun-21 04:00N 39°42' W 075°30'0 0.2
2017-Jun-21 03:30N 39°43' W 075°30'0 0.1
2017-Jun-21 03:00N 39°43' W 075°30'0 0.0
2017-Jun-21 02:27N 39°43' W 075°30'0 0.0
2017-Jun-21 02:00N 39°43' W 075°30'0 0.0
2017-Jun-21 01:30N 39°43' W 075°30'0 0.0
2017-Jun-21 00:57N 39°43' W 075°30'0 0.0
2017-Jun-21 00:30N 39°43' W 075°30'0 0.0
2017-Jun-21 00:00N 39°43' W 075°30'0 0.9
2017-Jun-20 23:30N 39°42' W 075°31'4 7.2
2017-Jun-20 23:00N 39°39' W 075°33'510.5
2017-Jun-20 22:31N 39°34' W 075°33'3 6.6
2017-Jun-20 22:01N 39°33' W 075°37'510.7
2017-Jun-20 21:30N 39°32' W 075°44'4 7.1
2017-Jun-20 21:00N 39°32' W 075°48'5 9.7
2017-Jun-20 20:30N 39°30' W 075°55'611.2
2017-Jun-20 20:00N 39°27' W 075°60'510.4
2017-Jun-20 19:30N 39°23' W 076°05'510.6
2017-Jun-20 19:00N 39°21' W 076°11'5 9.9
2017-Jun-20 18:29N 39°16' W 076°14'8 9.3
2017-Jun-20 17:34N 39°09' W 076°20'110.1
2017-Jun-20 17:30N 39°09' W 076°21'510.1
2017-Jun-20 17:01N 39°11' W 076°27'5 9.6
2017-Jun-20 16:30N 39°13' W 076°32'1 1.4
2017-Jun-20 15:26N 39°14' W 076°34'0 0.0
2017-Jun-20 14:59N 39°14' W 076°34'0 0.0
2017-Jun-20 14:29N 39°14' W 076°34'0 0.0
2017-Jun-20 13:29N 39°14' W 076°34'0 0.0
2017-Jun-20 12:59N 39°14' W 076°34'0 0.0
2017-Jun-20 12:26N 39°14' W 076°34'0 0.0
2017-Jun-20 11:59N 39°14' W 076°34'0 0.0
2017-Jun-20 11:26N 39°14' W 076°34'0 0.0
2017-Jun-20 10:59N 39°14' W 076°34'0 0.0
2017-Jun-20 10:29N 39°13' W 076°34'0 0.0
2017-Jun-20 09:59N 39°13' W 076°34'0 0.0
2017-Jun-20 09:29N 39°13' W 076°34'0 0.0
2017-Jun-20 08:59N 39°13' W 076°34'0 0.0
2017-Jun-20 08:29N 39°13' W 076°34'0 0.0
2017-Jun-20 07:59N 39°13' W 076°34'0 0.0
2017-Jun-20 07:29N 39°13' W 076°34'0 0.0
2017-Jun-20 06:59N 39°13' W 076°34'0 0.0
2017-Jun-20 06:29N 39°14' W 076°34'0 0.0
2017-Jun-20 05:59N 39°13' W 076°34'0 0.0
2017-Jun-20 05:29N 39°13' W 076°34'0 0.0
2017-Jun-20 04:59N 39°13' W 076°34'0 0.0
2017-Jun-20 04:29N 39°14' W 076°34'0 0.0
2017-Jun-20 03:59N 39°13' W 076°34'0 0.0
2017-Jun-20 03:29N 39°13' W 076°34'0 0.0
2017-Jun-20 02:59N 39°13' W 076°34'0 0.0
2017-Jun-20 02:29N 39°13' W 076°34'0 0.0
2017-Jun-20 01:59N 39°13' W 076°34'0 0.0
2017-Jun-20 01:26N 39°13' W 076°34'0 0.5
2017-Jun-20 01:00N 39°13' W 076°34'1 1.5
2017-Jun-20 00:30N 39°13' W 076°35'0 0.0
2017-Jun-19 23:58N 39°13' W 076°35'0 0.0
2017-Jun-19 23:28N 39°13' W 076°35'0 0.0
2017-Jun-19 22:55N 39°13' W 076°35'0 0.0
2017-Jun-19 22:28N 39°13' W 076°35'0 0.0
2017-Jun-19 21:13N 39°13' W 076°35'0 0.0
2017-Jun-19 20:58N 39°13' W 076°35'0 0.0
2017-Jun-19 20:16N 39°13' W 076°35'0 0.0
2017-Jun-19 19:58N 39°13' W 076°35'0 0.0
2017-Jun-19 19:28N 39°13' W 076°35'0 0.0
2017-Jun-19 18:49N 39°13' W 076°35'0 0.0
2017-Jun-19 18:28N 39°13' W 076°35'0 0.0
2017-Jun-19 17:58N 39°13' W 076°35'0 0.0
2017-Jun-19 17:28N 39°13' W 076°35'0 0.0
2017-Jun-19 16:58N 39°13' W 076°35'0 0.0
2017-Jun-19 16:28N 39°13' W 076°35'0 0.0
2017-Jun-19 15:58N 39°13' W 076°35'0 0.0
2017-Jun-19 15:28N 39°13' W 076°35'0 0.0
2017-Jun-19 14:58N 39°13' W 076°35'0 0.0
2017-Jun-19 13:58N 39°13' W 076°35'0 0.0
2017-Jun-19 13:28N 39°13' W 076°35'0 0.0
2017-Jun-19 12:58N 39°13' W 076°35'0 0.0
2017-Jun-19 12:28N 39°13' W 076°35'0 0.0
2017-Jun-19 11:58N 39°13' W 076°35'0 0.0
2017-Jun-19 11:28N 39°13' W 076°35'0 0.0
2017-Jun-19 10:58N 39°13' W 076°35'0 0.0
2017-Jun-19 10:28N 39°13' W 076°35'0 0.0
2017-Jun-19 09:58N 39°13' W 076°35'0 0.0
2017-Jun-19 09:28N 39°13' W 076°35'0 0.0
2017-Jun-19 08:55N 39°13' W 076°35'0 0.0
2017-Jun-19 08:28N 39°13' W 076°35'0 0.0
2017-Jun-19 07:58N 39°13' W 076°35'0 0.0
2017-Jun-19 07:28N 39°13' W 076°35'0 0.0
2017-Jun-19 06:58N 39°13' W 076°35'0 0.0
2017-Jun-19 06:28N 39°13' W 076°35'0 0.0
2017-Jun-19 05:58N 39°13' W 076°35'0 0.0
2017-Jun-19 05:28N 39°13' W 076°35'0 0.0
2017-Jun-19 04:58N 39°13' W 076°35'0 0.0
2017-Jun-19 04:28N 39°13' W 076°35'0 0.0
2017-Jun-19 03:58N 39°13' W 076°35'0 0.0
2017-Jun-19 03:28N 39°13' W 076°35'0 0.0
2017-Jun-19 02:58N 39°13' W 076°35'0 0.0
2017-Jun-19 02:28N 39°13' W 076°35'0 0.0
2017-Jun-19 01:55N 39°13' W 076°35'0 0.0
2017-Jun-19 01:28N 39°13' W 076°35'0 0.0
2017-Jun-19 00:58N 39°13' W 076°35'0 0.0
2017-Jun-19 00:22N 39°13' W 076°35'0 0.0
2017-Jun-18 23:13N 39°13' W 076°35'0 0.0
2017-Jun-18 22:58N 39°13' W 076°35'0 0.0
2017-Jun-18 22:28N 39°13' W 076°35'0 0.0
2017-Jun-18 21:52N 39°13' W 076°35'0 0.0
2017-Jun-18 21:22N 39°13' W 076°35'0 0.0
2017-Jun-18 20:55N 39°13' W 076°35'0 0.0
2017-Jun-18 17:25N 39°13' W 076°35'0 0.0
2017-Jun-18 16:37N 39°13' W 076°35'0 0.0
2017-Jun-18 15:55N 39°13' W 076°35'0 0.0
2017-Jun-18 15:28N 39°13' W 076°35'0 0.0
2017-Jun-18 14:46N 39°13' W 076°35'0 0.0
2017-Jun-18 13:49N 39°13' W 076°35'0 0.0
2017-Jun-18 13:27N 39°13' W 076°35'2 4.5
2017-Jun-18 13:00N 39°14' W 076°33'3 1.8
2017-Jun-18 11:34N 39°16' W 076°35'0 3.0
2017-Jun-18 11:30N 39°16' W 076°35'3 6.0
2017-Jun-18 11:00N 39°13' W 076°33'1 2.7
2017-Jun-18 10:30N 39°13' W 076°35'0 0.0
2017-Jun-18 10:00N 39°13' W 076°35'0 0.0
2017-Jun-18 09:30N 39°13' W 076°35'0 0.0
2017-Jun-18 09:00N 39°13' W 076°35'0 0.0
2017-Jun-18 08:30N 39°13' W 076°35'0 0.0
2017-Jun-18 08:00N 39°13' W 076°35'0 0.0
2017-Jun-18 07:30N 39°13' W 076°35'0 0.0
2017-Jun-18 07:00N 39°13' W 076°35'0 0.5
2017-Jun-18 06:30N 39°13' W 076°35'2 4.8
2017-Jun-18 06:00N 39°13' W 076°32'510.0
2017-Jun-18 05:30N 39°11' W 076°26'510.1
2017-Jun-18 05:00N 39°09' W 076°20'5 9.4
2017-Jun-18 04:29N 39°12' W 076°15'7 9.6
2017-Jun-18 03:47N 39°19' W 076°13'3 9.9
2017-Jun-18 03:29N 39°21' W 076°10'510.1
2017-Jun-18 03:01N 39°23' W 076°05'510.1
2017-Jun-18 02:30N 39°27' W 075°60'510.3
2017-Jun-18 02:01N 39°30' W 075°55'510.0
2017-Jun-18 01:31N 39°32' W 075°49'510.0
2017-Jun-18 01:01N 39°33' W 075°43'510.8
2017-Jun-18 00:30N 39°33' W 075°36'2 3.3
2017-Jun-18 00:01N 39°35' W 075°35'0 0.7
2017-Jun-17 23:31N 39°35' W 075°36'0 0.0
2017-Jun-17 22:59N 39°35' W 075°36'0 0.0
2017-Jun-17 22:29N 39°35' W 075°36'0 0.0
2017-Jun-17 21:59N 39°35' W 075°36'0 0.0
2017-Jun-17 21:29N 39°35' W 075°36'0 0.0
2017-Jun-17 20:59N 39°35' W 075°36'0 0.0
2017-Jun-17 20:29N 39°35' W 075°36'0 0.0
2017-Jun-17 19:59N 39°35' W 075°36'0 0.0
2017-Jun-17 19:29N 39°35' W 075°36'0 0.0
2017-Jun-17 18:59N 39°35' W 075°36'0 0.0
2017-Jun-17 18:29N 39°35' W 075°36'0 0.0
2017-Jun-17 17:59N 39°35' W 075°36'0 0.0
2017-Jun-17 17:29N 39°35' W 075°36'0 0.0
2017-Jun-17 16:59N 39°35' W 075°36'0 0.0
2017-Jun-17 16:29N 39°35' W 075°36'0 0.0
2017-Jun-17 15:59N 39°35' W 075°36'0 0.0
2017-Jun-17 15:29N 39°35' W 075°36'0 0.0
2017-Jun-17 14:59N 39°35' W 075°36'0 0.0
2017-Jun-17 14:29N 39°35' W 075°36'0 0.0
2017-Jun-17 13:29N 39°35' W 075°36'0 0.0
2017-Jun-17 12:59N 39°35' W 075°36'0 0.0
2017-Jun-17 12:29N 39°35' W 075°36'0 0.0
2017-Jun-17 11:59N 39°35' W 075°36'0 0.0
2017-Jun-17 11:29N 39°35' W 075°36'0 0.0
2017-Jun-17 10:59N 39°35' W 075°36'0 0.0
2017-Jun-17 10:29N 39°35' W 075°36'0 0.0
2017-Jun-17 09:59N 39°35' W 075°36'0 0.0
2017-Jun-17 09:29N 39°35' W 075°36'0 0.0
2017-Jun-17 08:59N 39°35' W 075°36'0 0.0
2017-Jun-17 08:29N 39°35' W 075°36'0 0.0
2017-Jun-17 07:59N 39°35' W 075°36'0 0.0
2017-Jun-17 07:26N 39°35' W 075°36'0 0.0
2017-Jun-17 06:59N 39°35' W 075°36'0 0.0
2017-Jun-17 06:30N 39°35' W 075°36'0 0.1
2017-Jun-17 06:00N 39°35' W 075°36'3 6.8
2017-Jun-17 05:31N 39°33' W 075°33'0 0.1
2017-Jun-17 04:59N 39°33' W 075°33'0 0.2
2017-Jun-17 04:29N 39°32' W 075°33'0 0.0
2017-Jun-17 03:59N 39°32' W 075°33'0 0.0
2017-Jun-17 03:29N 39°32' W 075°33'0 0.0
2017-Jun-17 02:59N 39°32' W 075°33'0 0.0
2017-Jun-17 02:29N 39°32' W 075°33'0 0.0
2017-Jun-17 01:59N 39°32' W 075°33'0 0.0
2017-Jun-17 01:29N 39°32' W 075°33'0 0.0
2017-Jun-17 00:59N 39°32' W 075°33'0 0.0
2017-Jun-17 00:29N 39°32' W 075°33'0 0.0
2017-Jun-16 23:59N 39°32' W 075°33'1 1.1
2017-Jun-16 23:30N 39°33' W 075°32'5 9.9
2017-Jun-16 23:00N 39°38' W 075°35'5 9.7
2017-Jun-16 22:30N 39°42' W 075°31'5 9.2
2017-Jun-16 22:00N 39°46' W 075°29'4 8.6
2017-Jun-16 21:30N 39°49' W 075°24'4 8.2
2017-Jun-16 21:00N 39°51' W 075°20'4 8.2
2017-Jun-16 20:30N 39°51' W 075°15'1 2.7
2017-Jun-16 19:59N 39°52' W 075°13'1 1.8
2017-Jun-16 19:30N 39°52' W 075°12'2 2.9
2017-Jun-16 18:59N 39°53' W 075°11'0 0.0
2017-Jun-16 18:29N 39°53' W 075°11'2 4.0
2017-Jun-16 18:01N 39°52' W 075°13'1 1.1
2017-Jun-16 17:30N 39°52' W 075°13'0 0.0
2017-Jun-16 17:00N 39°52' W 075°13'0 0.0
2017-Jun-16 16:30N 39°52' W 075°13'0 0.0
2017-Jun-16 16:01N 39°52' W 075°13'0 0.1
2017-Jun-16 15:30N 39°52' W 075°13'2 4.8
2017-Jun-16 15:00N 39°51' W 075°16'8 7.9
2017-Jun-16 14:00N 39°48' W 075°26'4 8.3
2017-Jun-16 13:30N 39°45' W 075°29'  

Dump ship's entire track history